createdAt,value
2017-09-26T00:00:17.714Z,1012.82
2017-09-26T00:01:17.700Z,1012.81
2017-09-26T00:02:17.685Z,1012.82
2017-09-26T00:03:17.671Z,1012.78
2017-09-26T00:04:17.657Z,1012.77
2017-09-26T00:05:17.645Z,1012.78
2017-09-26T00:06:17.632Z,1012.77
2017-09-26T00:07:17.621Z,1012.82
2017-09-26T00:08:17.608Z,1012.79
2017-09-26T00:09:17.591Z,1012.83
2017-09-26T00:10:17.579Z,1012.83
2017-09-26T00:11:17.565Z,1012.89
2017-09-26T00:12:17.552Z,1012.88
2017-09-26T00:13:17.539Z,1012.9
2017-09-26T00:14:17.526Z,1012.92
2017-09-26T00:15:17.518Z,1012.92
2017-09-26T00:16:17.501Z,1012.96
2017-09-26T00:17:17.485Z,1012.94
2017-09-26T00:18:17.471Z,1012.94
2017-09-26T00:19:17.457Z,1012.97
2017-09-26T00:20:17.444Z,1012.89
2017-09-26T00:21:17.437Z,1012.96
2017-09-26T00:22:17.420Z,1012.95
2017-09-26T00:23:17.406Z,1012.86
2017-09-26T00:24:17.393Z,1012.85
2017-09-26T00:25:17.382Z,1012.84
2017-09-26T00:26:17.370Z,1012.86
2017-09-26T00:27:17.356Z,1012.88
2017-09-26T00:28:17.340Z,1012.85
2017-09-26T00:29:17.326Z,1012.85
2017-09-26T00:30:17.312Z,1012.84
2017-09-26T00:31:17.300Z,1012.85
2017-09-26T00:32:17.287Z,1012.87
2017-09-26T00:33:17.272Z,1012.89
2017-09-26T00:34:17.259Z,1012.88
2017-09-26T00:35:17.248Z,1012.89
2017-09-26T00:36:17.232Z,1012.87
2017-09-26T00:37:17.219Z,1012.88
2017-09-26T00:38:17.205Z,1012.87
2017-09-26T00:39:17.193Z,1012.9
2017-09-26T00:40:17.178Z,1012.92
2017-09-26T00:41:17.166Z,1012.89
2017-09-26T00:42:17.151Z,1012.9
2017-09-26T00:43:17.173Z,1012.89
2017-09-26T00:44:17.125Z,1012.89
2017-09-26T00:45:17.161Z,1012.89
2017-09-26T00:46:17.097Z,1012.9
2017-09-26T00:47:17.084Z,1012.85
2017-09-26T00:48:17.071Z,1012.89
2017-09-26T00:49:17.057Z,1012.88
2017-09-26T00:50:17.044Z,1012.85
2017-09-26T00:51:17.029Z,1012.81
2017-09-26T00:52:17.017Z,1012.79
2017-09-26T00:53:17.003Z,1012.83
2017-09-26T00:54:16.990Z,1012.83
2017-09-26T00:55:16.977Z,1012.84
2017-09-26T00:56:16.962Z,1012.8
2017-09-26T00:57:16.950Z,1012.83
2017-09-26T00:58:16.934Z,1012.87
2017-09-26T00:59:16.922Z,1012.86
2017-09-26T01:00:16.908Z,1012.85
2017-09-26T01:01:16.896Z,1012.86
2017-09-26T01:02:16.880Z,1012.83
2017-09-26T01:03:16.871Z,1012.8
2017-09-26T01:04:16.854Z,1012.78
2017-09-26T01:05:16.840Z,1012.75
2017-09-26T01:06:16.826Z,1012.78
2017-09-26T01:07:16.814Z,1012.76
2017-09-26T01:08:16.799Z,1012.72
2017-09-26T01:09:16.784Z,1012.76
2017-09-26T01:10:16.771Z,1012.76
2017-09-26T01:11:16.760Z,1012.76
2017-09-26T01:12:16.744Z,1012.79
2017-09-26T01:13:16.733Z,1012.77
2017-09-26T01:14:16.717Z,1012.78
2017-09-26T01:15:16.703Z,1012.8
2017-09-26T01:16:16.692Z,1012.79
2017-09-26T01:17:16.680Z,1012.82
2017-09-26T01:18:16.663Z,1012.75
2017-09-26T01:19:16.651Z,1012.79
2017-09-26T01:20:16.636Z,1012.8
2017-09-26T01:21:16.621Z,1012.81
2017-09-26T01:22:16.609Z,1012.78
2017-09-26T01:23:16.596Z,1012.77
2017-09-26T01:24:16.581Z,1012.8
2017-09-26T01:25:16.566Z,1012.79
2017-09-26T01:26:16.552Z,1012.75
2017-09-26T01:27:16.541Z,1012.76
2017-09-26T01:28:16.526Z,1012.7
2017-09-26T01:29:16.514Z,1012.71
2017-09-26T01:30:16.500Z,1012.75
2017-09-26T01:31:16.484Z,1012.71
2017-09-26T01:32:16.472Z,1012.71
2017-09-26T01:33:16.457Z,1012.72
2017-09-26T01:34:16.446Z,1012.69
2017-09-26T01:35:16.429Z,1012.72
2017-09-26T01:36:16.415Z,1012.67
2017-09-26T01:37:16.403Z,1012.72
2017-09-26T01:38:16.390Z,1012.67
2017-09-26T01:39:16.376Z,1012.71
2017-09-26T01:40:16.362Z,1012.74
2017-09-26T01:41:16.349Z,1012.74
2017-09-26T01:42:16.334Z,1012.72
2017-09-26T01:43:16.322Z,1012.76
2017-09-26T01:44:16.310Z,1012.73
2017-09-26T01:45:16.296Z,1012.74
2017-09-26T01:46:16.282Z,1012.74
2017-09-26T01:47:16.268Z,1012.73
2017-09-26T01:48:16.253Z,1012.74
2017-09-26T01:49:16.241Z,1012.76
2017-09-26T01:50:16.227Z,1012.74
2017-09-26T01:51:16.213Z,1012.75
2017-09-26T01:52:16.201Z,1012.71
2017-09-26T01:53:16.188Z,1012.72
2017-09-26T01:54:16.170Z,1012.76
2017-09-26T01:55:16.156Z,1012.74
2017-09-26T01:56:16.143Z,1012.72
2017-09-26T01:57:16.130Z,1012.72
2017-09-26T01:58:16.318Z,1012.72
2017-09-26T01:59:16.108Z,1012.76
2017-09-26T02:00:16.089Z,1012.73
2017-09-26T02:01:16.075Z,1012.75
2017-09-26T02:02:16.064Z,1012.75
2017-09-26T02:03:16.048Z,1012.74
2017-09-26T02:04:16.033Z,1012.73
2017-09-26T02:05:16.020Z,1012.76
2017-09-26T02:06:16.007Z,1012.82
2017-09-26T02:07:15.993Z,1012.79
2017-09-26T02:08:15.981Z,1012.77
2017-09-26T02:09:15.969Z,1012.76
2017-09-26T02:10:15.956Z,1012.81
2017-09-26T02:11:15.937Z,1012.8
2017-09-26T02:12:15.941Z,1012.79
2017-09-26T02:13:15.913Z,1012.78
2017-09-26T02:14:15.899Z,1012.81
2017-09-26T02:15:15.886Z,1012.78
2017-09-26T02:16:15.870Z,1012.82
2017-09-26T02:17:15.861Z,1012.81
2017-09-26T02:18:15.843Z,1012.78
2017-09-26T02:19:15.830Z,1012.77
2017-09-26T02:20:15.816Z,1012.79
2017-09-26T02:21:15.807Z,1012.76
2017-09-26T02:22:15.788Z,1012.76
2017-09-26T02:23:15.774Z,1012.74
2017-09-26T02:24:15.762Z,1012.75
2017-09-26T02:25:15.747Z,1012.72
2017-09-26T02:26:15.733Z,1012.73
2017-09-26T02:27:15.720Z,1012.7
2017-09-26T02:28:15.707Z,1012.68
2017-09-26T02:29:15.695Z,1012.7
2017-09-26T02:30:15.682Z,1012.71
2017-09-26T02:31:15.665Z,1012.72
2017-09-26T02:32:15.655Z,1012.7
2017-09-26T02:33:15.639Z,1012.68
2017-09-26T02:34:15.627Z,1012.74
2017-09-26T02:35:15.617Z,1012.74
2017-09-26T02:36:15.598Z,1012.71
2017-09-26T02:37:15.583Z,1012.71
2017-09-26T02:38:15.571Z,1012.75
2017-09-26T02:39:15.557Z,1012.76
2017-09-26T02:40:15.547Z,1012.75
2017-09-26T02:41:15.528Z,1012.76
2017-09-26T02:42:15.529Z,1012.74
2017-09-26T02:43:15.503Z,1012.78
2017-09-26T02:44:15.486Z,1012.79
2017-09-26T02:45:15.474Z,1012.76
2017-09-26T02:46:15.459Z,1012.76
2017-09-26T02:47:15.449Z,1012.77
2017-09-26T02:48:15.432Z,1012.76
2017-09-26T02:49:15.420Z,1012.76
2017-09-26T02:50:15.406Z,1012.79
2017-09-26T02:51:15.394Z,1012.8
2017-09-26T02:52:15.379Z,1012.8
2017-09-26T02:53:15.363Z,1012.83
2017-09-26T02:54:15.355Z,1012.86
2017-09-26T02:55:15.342Z,1012.83
2017-09-26T02:56:15.322Z,1012.84
2017-09-26T02:57:15.308Z,1012.8
2017-09-26T02:58:15.296Z,1012.79
2017-09-26T02:59:15.281Z,1012.75
2017-09-26T03:00:15.267Z,1012.75
2017-09-26T03:01:15.254Z,1012.72
2017-09-26T03:02:15.241Z,1012.76
2017-09-26T03:03:15.227Z,1012.73
2017-09-26T03:04:15.212Z,1012.73
2017-09-26T03:05:15.199Z,1012.74
2017-09-26T03:06:15.185Z,1012.77
2017-09-26T03:07:15.171Z,1012.78
2017-09-26T03:08:15.158Z,1012.76
2017-09-26T03:09:15.162Z,1012.79
2017-09-26T03:10:15.130Z,1012.81
2017-09-26T03:11:15.115Z,1012.8
2017-09-26T03:12:15.108Z,1012.83
2017-09-26T03:13:15.089Z,1012.86
2017-09-26T03:14:15.078Z,1012.87
2017-09-26T03:15:15.061Z,1012.88
2017-09-26T03:16:15.047Z,1012.9
2017-09-26T03:17:15.034Z,1012.92
2017-09-26T03:18:15.020Z,1012.88
2017-09-26T03:19:15.005Z,1012.94
2017-09-26T03:20:14.994Z,1012.92
2017-09-26T03:21:14.977Z,1012.9
2017-09-26T03:22:14.963Z,1012.91
2017-09-26T03:23:14.949Z,1012.92
2017-09-26T03:24:14.936Z,1012.9
2017-09-26T03:25:14.923Z,1012.9
2017-09-26T03:26:14.907Z,1012.9
2017-09-26T03:27:14.895Z,1012.92
2017-09-26T03:28:14.878Z,1012.94
2017-09-26T03:29:14.870Z,1012.97
2017-09-26T03:30:14.859Z,1012.96
2017-09-26T03:31:14.844Z,1012.97
2017-09-26T03:32:14.822Z,1012.98
2017-09-26T03:33:14.810Z,1013
2017-09-26T03:34:14.795Z,1012.99
2017-09-26T03:35:14.782Z,1012.97
2017-09-26T03:36:14.768Z,1012.95
2017-09-26T03:37:14.755Z,1012.91
2017-09-26T03:38:14.742Z,1012.97
2017-09-26T03:39:14.727Z,1012.97
2017-09-26T03:40:14.714Z,1012.99
2017-09-26T03:41:14.698Z,1013
2017-09-26T03:42:14.685Z,1013.01
2017-09-26T03:43:14.671Z,1013.01
2017-09-26T03:44:14.658Z,1013.03
2017-09-26T03:45:14.648Z,1013.06
2017-09-26T03:46:14.630Z,1013.05
2017-09-26T03:47:14.615Z,1013.06
2017-09-26T03:48:14.604Z,1013.06
2017-09-26T03:49:14.588Z,1013.07
2017-09-26T03:50:14.575Z,1013.07
2017-09-26T03:51:14.562Z,1013.04
2017-09-26T03:52:14.546Z,1013.06
2017-09-26T03:53:14.534Z,1013.08
2017-09-26T03:54:14.519Z,1013.05
2017-09-26T03:55:14.508Z,1013.07
2017-09-26T03:56:14.494Z,1013.03
2017-09-26T03:57:14.479Z,1013.05
2017-09-26T03:58:14.463Z,1013.04
2017-09-26T03:59:14.451Z,1013.03
2017-09-26T04:00:14.435Z,1013
2017-09-26T04:01:14.421Z,1013.03
2017-09-26T04:02:14.408Z,1013.01
2017-09-26T04:03:14.432Z,1012.99
2017-09-26T04:04:14.381Z,1013.01
2017-09-26T04:05:14.364Z,1013.03
2017-09-26T04:06:14.352Z,1013.04
2017-09-26T04:07:14.341Z,1013
2017-09-26T04:08:14.325Z,1013.05
2017-09-26T04:09:14.320Z,1013.02
2017-09-26T04:10:14.299Z,1012.99
2017-09-26T04:11:14.284Z,1012.98
2017-09-26T04:12:14.268Z,1013
2017-09-26T04:13:14.257Z,1013.01
2017-09-26T04:14:14.241Z,1012.96
2017-09-26T04:15:14.228Z,1013
2017-09-26T04:16:14.214Z,1012.98
2017-09-26T04:17:14.201Z,1012.98
2017-09-26T04:18:14.185Z,1013.04
2017-09-26T04:19:14.172Z,1013.01
2017-09-26T04:20:14.159Z,1013.02
2017-09-26T04:21:14.144Z,1013.04
2017-09-26T04:22:14.132Z,1013.04
2017-09-26T04:23:14.115Z,1013.04
2017-09-26T04:24:14.102Z,1013
2017-09-26T04:25:14.089Z,1013.03
2017-09-26T04:26:14.076Z,1013.03
2017-09-26T04:27:14.065Z,1013.04
2017-09-26T04:28:14.046Z,1013.02
2017-09-26T04:29:14.033Z,1013.01
2017-09-26T04:30:14.018Z,1013.01
2017-09-26T04:31:14.004Z,1013.01
2017-09-26T04:32:13.991Z,1013
2017-09-26T04:33:14.028Z,1013.05
2017-09-26T04:34:13.962Z,1013.03
2017-09-26T04:35:13.949Z,1013.04
2017-09-26T04:36:13.937Z,1013.01
2017-09-26T04:37:13.922Z,1013.03
2017-09-26T04:38:13.909Z,1013.06
2017-09-26T04:39:13.896Z,1013.07
2017-09-26T04:40:13.879Z,1013.04
2017-09-26T04:41:13.867Z,1013.04
2017-09-26T04:42:13.852Z,1013.02
2017-09-26T04:43:13.837Z,1013.02
2017-09-26T04:44:13.823Z,1013.02
2017-09-26T04:45:13.809Z,1013.06
2017-09-26T04:46:13.797Z,1013.06
2017-09-26T04:47:13.784Z,1013.06
2017-09-26T04:48:13.771Z,1013.06
2017-09-26T04:49:13.755Z,1013.07
2017-09-26T04:50:13.746Z,1013.08
2017-09-26T04:51:13.727Z,1013.09
2017-09-26T04:52:13.711Z,1013.12
2017-09-26T04:53:13.698Z,1013.14
2017-09-26T04:54:13.687Z,1013.16
2017-09-26T04:55:13.671Z,1013.17
2017-09-26T04:56:13.657Z,1013.2
2017-09-26T04:57:13.646Z,1013.21
2017-09-26T04:58:13.629Z,1013.18
2017-09-26T04:59:13.619Z,1013.18
2017-09-26T05:00:13.603Z,1013.21
2017-09-26T05:01:13.588Z,1013.18
2017-09-26T05:02:13.573Z,1013.23
2017-09-26T05:03:13.557Z,1013.21
2017-09-26T05:04:13.544Z,1013.21
2017-09-26T05:05:13.530Z,1013.23
2017-09-26T05:06:13.517Z,1013.23
2017-09-26T05:07:13.501Z,1013.22
2017-09-26T05:08:13.489Z,1013.24
2017-09-26T05:09:13.473Z,1013.24
2017-09-26T05:10:13.461Z,1013.2
2017-09-26T05:11:13.448Z,1013.24
2017-09-26T05:12:13.432Z,1013.23
2017-09-26T05:13:13.419Z,1013.21
2017-09-26T05:14:13.402Z,1013.19
2017-09-26T05:15:13.391Z,1013.18
2017-09-26T05:16:13.377Z,1013.21
2017-09-26T05:17:13.370Z,1013.23
2017-09-26T05:18:13.348Z,1013.21
2017-09-26T05:19:13.334Z,1013.22
2017-09-26T05:20:13.319Z,1013.22
2017-09-26T05:21:13.307Z,1013.22
2017-09-26T05:22:13.291Z,1013.24
2017-09-26T05:23:13.280Z,1013.26
2017-09-26T05:24:13.266Z,1013.22
2017-09-26T05:25:13.252Z,1013.25
2017-09-26T05:26:13.244Z,1013.29
2017-09-26T05:27:13.222Z,1013.28
2017-09-26T05:28:13.209Z,1013.27
2017-09-26T05:29:13.192Z,1013.29
2017-09-26T05:30:13.182Z,1013.32
2017-09-26T05:31:13.166Z,1013.31
2017-09-26T05:32:13.152Z,1013.34
2017-09-26T05:33:13.137Z,1013.32
2017-09-26T05:34:13.126Z,1013.31
2017-09-26T05:35:13.111Z,1013.36
2017-09-26T05:36:13.099Z,1013.32
2017-09-26T05:37:13.081Z,1013.33
2017-09-26T05:38:13.102Z,1013.31
2017-09-26T05:39:13.054Z,1013.33
2017-09-26T05:40:13.041Z,1013.33
2017-09-26T05:41:13.032Z,1013.34
2017-09-26T05:42:13.012Z,1013.32
2017-09-26T05:43:12.997Z,1013.33
2017-09-26T05:44:12.984Z,1013.37
2017-09-26T05:45:12.981Z,1013.38
2017-09-26T05:46:12.956Z,1013.37
2017-09-26T05:47:12.943Z,1013.4
2017-09-26T05:48:12.926Z,1013.39
2017-09-26T05:49:12.916Z,1013.41
2017-09-26T05:50:12.900Z,1013.44
2017-09-26T05:51:12.888Z,1013.4
2017-09-26T05:52:12.870Z,1013.4
2017-09-26T05:53:12.859Z,1013.46
2017-09-26T05:54:12.843Z,1013.45
2017-09-26T05:55:12.833Z,1013.42
2017-09-26T05:56:12.818Z,1013.45
2017-09-26T05:57:12.803Z,1013.45
2017-09-26T05:58:12.787Z,1013.47
2017-09-26T05:59:12.777Z,1013.42
2017-09-26T06:00:12.760Z,1013.47
2017-09-26T06:01:12.749Z,1013.38
2017-09-26T06:02:12.732Z,1013.47
2017-09-26T06:03:12.718Z,1013.48
2017-09-26T06:04:12.705Z,1013.48
2017-09-26T06:05:12.690Z,1013.46
2017-09-26T06:06:12.678Z,1013.49
2017-09-26T06:07:12.666Z,1013.48
2017-09-26T06:08:12.649Z,1013.49
2017-09-26T06:09:12.642Z,1013.48
2017-09-26T06:10:12.620Z,1013.46
2017-09-26T06:11:12.608Z,1013.46
2017-09-26T06:12:12.596Z,1013.46
2017-09-26T06:13:12.580Z,1013.49
2017-09-26T06:14:12.569Z,1013.51
2017-09-26T06:15:12.553Z,1013.49
2017-09-26T06:16:12.538Z,1013.46
2017-09-26T06:17:12.526Z,1013.47
2017-09-26T06:18:12.512Z,1013.51
2017-09-26T06:19:12.501Z,1013.5
2017-09-26T06:20:12.484Z,1013.48
2017-09-26T06:21:12.472Z,1013.5
2017-09-26T06:22:12.455Z,1013.53
2017-09-26T06:23:12.442Z,1013.51
2017-09-26T06:24:12.428Z,1013.55
2017-09-26T06:25:12.415Z,1013.57
2017-09-26T06:26:12.402Z,1013.57
2017-09-26T06:27:12.390Z,1013.61
2017-09-26T06:28:12.372Z,1013.6
2017-09-26T06:29:12.361Z,1013.61
2017-09-26T06:30:12.346Z,1013.64
2017-09-26T06:31:12.332Z,1013.62
2017-09-26T06:32:12.331Z,1013.62
2017-09-26T06:33:12.307Z,1013.64
2017-09-26T06:34:12.292Z,1013.64
2017-09-26T06:35:12.284Z,1013.65
2017-09-26T06:36:12.265Z,1013.63
2017-09-26T06:37:12.252Z,1013.62
2017-09-26T06:38:12.247Z,1013.64
2017-09-26T06:39:12.230Z,1013.65
2017-09-26T06:40:12.210Z,1013.59
2017-09-26T06:41:12.200Z,1013.61
2017-09-26T06:42:12.183Z,1013.61
2017-09-26T06:43:12.171Z,1013.63
2017-09-26T06:44:12.158Z,1013.68
2017-09-26T06:45:12.143Z,1013.65
2017-09-26T06:46:12.131Z,1013.65
2017-09-26T06:47:12.116Z,1013.66
2017-09-26T06:48:12.102Z,1013.66
2017-09-26T06:49:12.089Z,1013.69
2017-09-26T06:50:12.078Z,1013.67
2017-09-26T06:51:12.062Z,1013.73
2017-09-26T06:52:12.051Z,1013.75
2017-09-26T06:53:12.035Z,1013.77
2017-09-26T06:54:12.023Z,1013.74
2017-09-26T06:55:12.009Z,1013.74
2017-09-26T06:56:11.998Z,1013.75
2017-09-26T06:57:11.983Z,1013.8
2017-09-26T06:58:11.970Z,1013.84
2017-09-26T06:59:11.957Z,1013.8
2017-09-26T07:00:11.949Z,1013.81
2017-09-26T07:01:11.930Z,1013.82
2017-09-26T07:02:11.917Z,1013.84
2017-09-26T07:03:11.903Z,1013.84
2017-09-26T07:04:11.891Z,1013.88
2017-09-26T07:05:11.888Z,1013.84
2017-09-26T07:06:11.864Z,1013.86
2017-09-26T07:07:11.849Z,1013.85
2017-09-26T07:08:11.838Z,1013.81
2017-09-26T07:09:11.825Z,1013.85
2017-09-26T07:10:11.816Z,1013.82
2017-09-26T07:11:11.796Z,1013.79
2017-09-26T07:12:11.784Z,1013.85
2017-09-26T07:13:11.770Z,1013.82
2017-09-26T07:14:11.759Z,1013.84
2017-09-26T07:15:11.743Z,1013.86
2017-09-26T07:16:11.731Z,1013.88
2017-09-26T07:17:11.721Z,1013.91
2017-09-26T07:18:11.706Z,1013.97
2017-09-26T07:19:11.694Z,1013.94
2017-09-26T07:20:11.682Z,1013.94
2017-09-26T07:21:11.666Z,1013.96
2017-09-26T07:22:11.653Z,1013.97
2017-09-26T07:23:11.642Z,1013.99
2017-09-26T07:24:11.628Z,1013.99
2017-09-26T07:25:11.614Z,1013.98
2017-09-26T07:26:11.601Z,1014
2017-09-26T07:27:11.589Z,1013.97
2017-09-26T07:28:11.592Z,1013.99
2017-09-26T07:29:11.561Z,1013.99
2017-09-26T07:30:11.549Z,1013.99
2017-09-26T07:31:11.539Z,1013.97
2017-09-26T07:32:11.525Z,1013.97
2017-09-26T07:33:11.511Z,1014.01
2017-09-26T07:34:11.499Z,1014.03
2017-09-26T07:35:11.486Z,1014.03
2017-09-26T07:36:11.473Z,1014.04
2017-09-26T07:37:11.461Z,1014.07
2017-09-26T07:38:11.453Z,1014.09
2017-09-26T07:39:11.436Z,1014.1
2017-09-26T07:40:11.422Z,1014.13
2017-09-26T07:41:11.411Z,1014.09
2017-09-26T07:42:11.398Z,1014.13
2017-09-26T07:43:11.387Z,1014.09
2017-09-26T07:44:11.373Z,1014.12
2017-09-26T07:45:11.360Z,1014.11
2017-09-26T07:46:11.347Z,1014.11
2017-09-26T07:47:11.339Z,1014.13
2017-09-26T07:48:11.324Z,1014.1
2017-09-26T07:49:11.309Z,1014.13
2017-09-26T07:50:11.298Z,1014.12
2017-09-26T07:51:11.284Z,1014.09
2017-09-26T07:52:11.272Z,1014.15
2017-09-26T07:53:11.262Z,1014.14
2017-09-26T07:54:11.248Z,1014.15
2017-09-26T07:55:11.234Z,1014.12
2017-09-26T07:56:11.223Z,1014.15
2017-09-26T07:57:11.212Z,1014.14
2017-09-26T07:58:11.201Z,1014.1
2017-09-26T07:59:11.389Z,1014.1
2017-09-26T08:00:11.178Z,1014.09
2017-09-26T08:01:11.168Z,1014.09
2017-09-26T08:02:11.150Z,1014.1
2017-09-26T08:03:11.142Z,1014.11
2017-09-26T08:04:11.128Z,1014.11
2017-09-26T08:05:11.115Z,1014.1
2017-09-26T08:06:11.105Z,1014.14
2017-09-26T08:07:11.093Z,1014.12
2017-09-26T08:08:11.081Z,1014.15
2017-09-26T08:09:11.066Z,1014.17
2017-09-26T08:10:11.054Z,1014.17
2017-09-26T08:11:11.044Z,1014.18
2017-09-26T08:12:11.030Z,1014.17
2017-09-26T08:13:11.017Z,1014.21
2017-09-26T08:14:11.006Z,1014.2
2017-09-26T08:15:10.998Z,1014.17
2017-09-26T08:16:10.983Z,1014.21
2017-09-26T08:17:10.970Z,1014.15
2017-09-26T08:18:10.957Z,1014.21
2017-09-26T08:19:10.947Z,1014.15
2017-09-26T08:20:10.936Z,1014.16
2017-09-26T08:21:10.926Z,1014.15
2017-09-26T08:22:10.914Z,1014.2
2017-09-26T08:23:10.901Z,1014.15
2017-09-26T08:24:10.890Z,1014.2
2017-09-26T08:25:10.879Z,1014.19
2017-09-26T08:26:10.867Z,1014.16
2017-09-26T08:27:10.856Z,1014.22
2017-09-26T08:28:10.845Z,1014.18
2017-09-26T08:29:10.833Z,1014.17
2017-09-26T08:30:10.825Z,1014.17
2017-09-26T08:31:10.816Z,1014.18
2017-09-26T08:32:10.802Z,1014.21
2017-09-26T08:33:10.791Z,1014.21
2017-09-26T08:34:10.784Z,1014.19
2017-09-26T08:35:10.771Z,1014.21
2017-09-26T08:36:10.757Z,1014.2
2017-09-26T08:37:10.747Z,1014.17
2017-09-26T08:38:10.738Z,1014.21
2017-09-26T08:39:10.724Z,1014.22
2017-09-26T08:40:10.715Z,1014.2
2017-09-26T08:41:10.705Z,1014.16
2017-09-26T08:42:10.694Z,1014.16
2017-09-26T08:43:10.683Z,1014.12
2017-09-26T08:44:10.671Z,1014.18
2017-09-26T08:45:10.662Z,1014.13
2017-09-26T08:46:10.660Z,1014.15
2017-09-26T08:47:10.643Z,1014.13
2017-09-26T08:48:10.631Z,1014.11
2017-09-26T08:49:10.618Z,1014.14
2017-09-26T08:50:10.609Z,1014.11
2017-09-26T08:51:10.598Z,1014.16
2017-09-26T08:52:10.588Z,1014.15
2017-09-26T08:53:10.576Z,1014.15
2017-09-26T08:54:10.567Z,1014.19
2017-09-26T08:55:10.559Z,1014.18
2017-09-26T08:56:10.549Z,1014.18
2017-09-26T08:57:10.536Z,1014.19
2017-09-26T08:58:10.523Z,1014.2
2017-09-26T08:59:10.514Z,1014.21
2017-09-26T09:00:10.503Z,1014.18
2017-09-26T09:01:10.488Z,1014.16
2017-09-26T09:02:10.478Z,1014.14
2017-09-26T09:03:10.469Z,1014.17
2017-09-26T09:04:10.457Z,1014.15
2017-09-26T09:05:10.447Z,1014.12
2017-09-26T09:06:10.438Z,1014.15
2017-09-26T09:07:10.426Z,1014.13
2017-09-26T09:08:10.414Z,1014.12
2017-09-26T09:09:10.404Z,1014.12
2017-09-26T09:10:10.395Z,1014.12
2017-09-26T09:11:10.382Z,1014.13
2017-09-26T09:12:10.370Z,1014.12
2017-09-26T09:13:10.359Z,1014.14
2017-09-26T09:14:10.350Z,1014.15
2017-09-26T09:15:10.337Z,1014.18
2017-09-26T09:16:10.325Z,1014.16
2017-09-26T09:17:10.316Z,1014.13
2017-09-26T09:18:10.306Z,1014.18
2017-09-26T09:19:10.293Z,1014.16
2017-09-26T09:20:10.281Z,1014.12
2017-09-26T09:21:10.272Z,1014.15
2017-09-26T09:22:10.261Z,1014.12
2017-09-26T09:23:10.248Z,1014.15
2017-09-26T09:24:10.241Z,1014.16
2017-09-26T09:25:10.228Z,1014.15
2017-09-26T09:26:10.215Z,1014.18
2017-09-26T09:27:10.206Z,1014.16
2017-09-26T09:28:10.195Z,1014.14
2017-09-26T09:29:10.184Z,1014.15
2017-09-26T09:30:10.172Z,1014.17
2017-09-26T09:31:10.159Z,1014.16
2017-09-26T09:32:10.150Z,1014.19
2017-09-26T09:33:10.137Z,1014.18
2017-09-26T09:34:10.141Z,1014.2
2017-09-26T09:35:10.114Z,1014.18
2017-09-26T09:36:10.106Z,1014.18
2017-09-26T09:37:10.100Z,1014.17
2017-09-26T09:38:10.080Z,1014.18
2017-09-26T09:39:10.072Z,1014.23
2017-09-26T09:40:10.060Z,1014.21
2017-09-26T09:41:10.049Z,1014.22
2017-09-26T09:42:10.038Z,1014.2
2017-09-26T09:43:10.032Z,1014.24
2017-09-26T09:44:10.017Z,1014.24
2017-09-26T09:45:10.006Z,1014.23
2017-09-26T09:46:09.993Z,1014.24
2017-09-26T09:47:10.055Z,1014.26
2017-09-26T09:48:09.972Z,1014.28
2017-09-26T09:49:09.961Z,1014.29
2017-09-26T09:50:09.951Z,1014.29
2017-09-26T09:51:09.940Z,1014.29
2017-09-26T09:52:09.928Z,1014.27
2017-09-26T09:53:09.918Z,1014.28
2017-09-26T09:54:09.908Z,1014.32
2017-09-26T09:55:09.895Z,1014.3
2017-09-26T09:56:09.888Z,1014.32
2017-09-26T09:57:09.877Z,1014.35
2017-09-26T09:58:09.866Z,1014.32
2017-09-26T09:59:10.053Z,1014.33
2017-09-26T10:00:09.843Z,1014.34
2017-09-26T10:01:09.833Z,1014.31
2017-09-26T10:02:09.821Z,1014.29
2017-09-26T10:03:09.809Z,1014.31
2017-09-26T10:04:09.801Z,1014.28
2017-09-26T10:05:09.790Z,1014.26
2017-09-26T10:06:09.778Z,1014.28
2017-09-26T10:07:09.767Z,1014.28
2017-09-26T10:08:09.757Z,1014.22
2017-09-26T10:09:09.748Z,1014.21
2017-09-26T10:10:09.734Z,1014.12
2017-09-26T10:11:09.727Z,1014.15
2017-09-26T10:12:09.712Z,1014.14
2017-09-26T10:13:09.703Z,1014.14
2017-09-26T10:14:09.693Z,1014.14
2017-09-26T10:15:09.682Z,1014.19
2017-09-26T10:16:09.672Z,1014.17
2017-09-26T10:17:09.660Z,1014.19
2017-09-26T10:18:09.650Z,1014.17
2017-09-26T10:19:09.639Z,1014.2
2017-09-26T10:20:09.633Z,1014.22
2017-09-26T10:21:09.623Z,1014.19
2017-09-26T10:22:09.610Z,1014.16
2017-09-26T10:23:09.599Z,1014.18
2017-09-26T10:24:09.586Z,1014.19
2017-09-26T10:25:09.579Z,1014.15
2017-09-26T10:26:09.567Z,1014.12
2017-09-26T10:27:09.556Z,1014.11
2017-09-26T10:28:09.547Z,1014.15
2017-09-26T10:29:09.535Z,1014.15
2017-09-26T10:30:09.527Z,1014.18
2017-09-26T10:31:09.517Z,1014.18
2017-09-26T10:32:09.507Z,1014.22
2017-09-26T10:33:09.495Z,1014.21
2017-09-26T10:34:09.485Z,1014.15
2017-09-26T10:35:09.474Z,1014.23
2017-09-26T10:36:09.464Z,1014.22
2017-09-26T10:37:09.453Z,1014.2
2017-09-26T10:38:09.444Z,1014.17
2017-09-26T10:39:09.433Z,1014.22
2017-09-26T10:40:09.424Z,1014.23
2017-09-26T10:41:09.416Z,1014.2
2017-09-26T10:42:09.413Z,1014.2
2017-09-26T10:43:09.394Z,1014.2
2017-09-26T10:44:09.385Z,1014.18
2017-09-26T10:45:09.375Z,1014.21
2017-09-26T10:46:09.367Z,1014.19
2017-09-26T10:47:09.357Z,1014.21
2017-09-26T10:48:09.348Z,1014.24
2017-09-26T10:49:09.338Z,1014.21
2017-09-26T10:50:09.330Z,1014.21
2017-09-26T10:51:09.319Z,1014.25
2017-09-26T10:52:09.308Z,1014.28
2017-09-26T10:53:09.302Z,1014.25
2017-09-26T10:54:09.290Z,1014.2
2017-09-26T10:55:09.280Z,1014.26
2017-09-26T10:56:09.273Z,1014.26
2017-09-26T10:57:09.264Z,1014.23
2017-09-26T10:58:09.252Z,1014.22
2017-09-26T10:59:09.244Z,1014.26
2017-09-26T11:00:09.238Z,1014.23
2017-09-26T11:01:09.226Z,1014.19
2017-09-26T11:02:09.218Z,1014.2
2017-09-26T11:03:09.208Z,1014.22
2017-09-26T11:04:09.200Z,1014.24
2017-09-26T11:05:09.190Z,1014.26
2017-09-26T11:06:09.183Z,1014.26
2017-09-26T11:07:09.175Z,1014.23
2017-09-26T11:08:09.166Z,1014.23
2017-09-26T11:09:09.161Z,1014.23
2017-09-26T11:10:09.146Z,1014.29
2017-09-26T11:11:09.138Z,1014.26
2017-09-26T11:12:09.129Z,1014.26
2017-09-26T11:13:09.120Z,1014.22
2017-09-26T11:14:09.112Z,1014.29
2017-09-26T11:15:09.141Z,1014.25
2017-09-26T11:16:09.096Z,1014.27
2017-09-26T11:17:09.085Z,1014.27
2017-09-26T11:18:09.109Z,1014.26
2017-09-26T11:19:09.069Z,1014.23
2017-09-26T11:20:09.061Z,1014.26
2017-09-26T11:21:09.053Z,1014.23
2017-09-26T11:22:09.049Z,1014.25
2017-09-26T11:23:09.039Z,1014.25
2017-09-26T11:24:09.029Z,1014.24
2017-09-26T11:25:09.027Z,1014.28
2017-09-26T11:26:09.013Z,1014.24
2017-09-26T11:27:09.006Z,1014.23
2017-09-26T11:28:08.999Z,1014.26
2017-09-26T11:29:08.992Z,1014.26
2017-09-26T11:30:08.989Z,1014.23
2017-09-26T11:31:08.976Z,1014.23
2017-09-26T11:32:08.970Z,1014.24
2017-09-26T11:33:08.963Z,1014.27
2017-09-26T11:34:08.956Z,1014.27
2017-09-26T11:35:08.949Z,1014.27
2017-09-26T11:36:08.944Z,1014.29
2017-09-26T11:37:08.936Z,1014.27
2017-09-26T11:38:08.931Z,1014.29
2017-09-26T11:39:08.923Z,1014.32
2017-09-26T11:40:08.918Z,1014.35
2017-09-26T11:41:08.912Z,1014.36
2017-09-26T11:42:08.907Z,1014.33
2017-09-26T11:43:08.902Z,1014.38
2017-09-26T11:44:08.894Z,1014.34
2017-09-26T11:45:08.889Z,1014.41
2017-09-26T11:46:08.892Z,1014.36
2017-09-26T11:47:08.881Z,1014.37
2017-09-26T11:48:08.878Z,1014.39
2017-09-26T11:49:08.871Z,1014.39
2017-09-26T11:50:08.865Z,1014.39
2017-09-26T11:51:08.863Z,1014.33
2017-09-26T11:52:08.858Z,1014.38
2017-09-26T11:53:08.855Z,1014.31
2017-09-26T11:54:08.853Z,1014.32
2017-09-26T11:55:08.848Z,1014.32
2017-09-26T11:56:08.847Z,1014.33
2017-09-26T11:57:08.844Z,1014.37
2017-09-26T11:58:08.839Z,1014.35
2017-09-26T11:59:09.038Z,1014.39
2017-09-26T12:00:08.836Z,1014.37
2017-09-26T12:01:08.831Z,1014.38
2017-09-26T12:02:08.828Z,1014.4
2017-09-26T12:03:08.825Z,1014.35
2017-09-26T12:04:08.824Z,1014.37
2017-09-26T12:05:08.823Z,1014.39
2017-09-26T12:06:08.821Z,1014.37
2017-09-26T12:07:08.818Z,1014.37
2017-09-26T12:08:08.819Z,1014.36